createdAt,value
2022-08-27T00:00:23.832Z,10.27
2022-08-27T00:02:51.568Z,9.43
2022-08-27T00:05:20.033Z,11.15
2022-08-27T00:07:47.805Z,9.60
2022-08-27T00:10:17.787Z,8.93
2022-08-27T00:12:48.397Z,8.27
2022-08-27T00:15:17.687Z,8.65
2022-08-27T00:17:46.585Z,8.90
2022-08-27T00:20:15.584Z,9.35
2022-08-27T00:22:43.366Z,9.40
2022-08-27T00:25:10.962Z,8.80
2022-08-27T00:27:39.168Z,8.20
2022-08-27T00:30:10.896Z,9.02
2022-08-27T00:32:38.777Z,7.60
2022-08-27T00:35:06.776Z,6.72
2022-08-27T00:37:34.367Z,8.38
2022-08-27T00:40:01.995Z,10.07
2022-08-27T00:42:31.064Z,8.07
2022-08-27T00:44:59.299Z,8.88
2022-08-27T00:47:30.395Z,9.68
2022-08-27T00:49:59.862Z,9.23
2022-08-27T00:52:28.588Z,10.38
2022-08-27T00:54:59.503Z,9.00
2022-08-27T00:57:27.331Z,8.23
2022-08-27T00:59:55.631Z,9.93
2022-08-27T01:02:26.132Z,11.43
2022-08-27T01:04:57.405Z,9.43
2022-08-27T01:07:28.600Z,9.75
2022-08-27T01:09:58.501Z,9.25
2022-08-27T01:12:26.243Z,8.88
2022-08-27T01:14:53.851Z,9.52
2022-08-27T01:17:21.394Z,9.52
2022-08-27T01:19:50.632Z,9.77
2022-08-27T01:22:25.933Z,7.90
2022-08-27T01:24:56.673Z,8.23
2022-08-27T01:27:27.373Z,8.88
2022-08-27T01:29:55.407Z,8.57
2022-08-27T01:32:25.461Z,9.40
2022-08-27T01:34:53.784Z,9.90
2022-08-27T01:37:23.866Z,10.98
2022-08-27T01:39:52.332Z,9.75
2022-08-27T01:42:23.212Z,9.60
2022-08-27T01:44:51.659Z,9.68
2022-08-27T01:47:20.630Z,10.55
2022-08-27T01:49:48.595Z,9.20
2022-08-27T01:52:18.212Z,7.70
2022-08-27T01:54:45.804Z,6.85
2022-08-27T01:57:13.741Z,7.93
2022-08-27T01:59:42.857Z,7.80
2022-08-27T02:02:11.535Z,7.50
2022-08-27T02:04:39.371Z,8.30
2022-08-27T02:07:07.039Z,8.18
2022-08-27T02:09:34.581Z,8.75
2022-08-27T02:12:02.465Z,10.70
2022-08-27T02:14:30.179Z,10.27
2022-08-27T02:16:59.021Z,9.63
2022-08-27T02:19:26.882Z,9.00
2022-08-27T02:21:54.391Z,9.70
2022-08-27T02:24:21.928Z,10.02
2022-08-27T02:26:49.443Z,8.98
2022-08-27T02:29:16.955Z,9.93
2022-08-27T02:31:44.857Z,8.73
2022-08-27T02:34:13.747Z,8.32
2022-08-27T02:36:41.300Z,8.45
2022-08-27T02:39:08.876Z,8.25
2022-08-27T02:41:36.476Z,9.68
2022-08-27T02:44:04.687Z,9.30
2022-08-27T02:46:38.722Z,8.45
2022-08-27T02:49:07.783Z,9.65
2022-08-27T02:51:36.866Z,7.88
2022-08-27T02:54:04.682Z,7.47
2022-08-27T02:56:36.068Z,8.23
2022-08-27T02:59:03.554Z,7.65
2022-08-27T03:01:31.159Z,9.00
2022-08-27T03:03:58.692Z,7.78
2022-08-27T03:06:26.259Z,7.53
2022-08-27T03:08:55.153Z,7.28
2022-08-27T03:11:24.067Z,8.10
2022-08-27T03:13:52.078Z,7.20
2022-08-27T03:16:19.793Z,8.23
2022-08-27T03:18:46.431Z,7.47
2022-08-27T03:21:17.946Z,6.88
2022-08-27T03:23:45.476Z,7.50
2022-08-27T03:26:14.335Z,7.47
2022-08-27T03:28:41.942Z,7.13
2022-08-27T03:31:14.604Z,7.55
2022-08-27T03:33:42.817Z,8.13
2022-08-27T03:36:10.445Z,8.57
2022-08-27T03:38:38.331Z,8.10
2022-08-27T03:41:06.519Z,8.38
2022-08-27T03:43:35.904Z,8.18
2022-08-27T03:46:03.425Z,8.32
2022-08-27T03:48:31.842Z,9.02
2022-08-27T03:50:59.541Z,9.85
2022-08-27T03:53:28.239Z,10.38
2022-08-27T03:55:55.747Z,10.18
2022-08-27T03:58:23.306Z,9.00
2022-08-27T04:00:52.159Z,10.43
2022-08-27T04:03:19.729Z,8.35
2022-08-27T04:05:47.258Z,8.05
2022-08-27T04:08:14.760Z,8.48
2022-08-27T04:10:42.409Z,8.15
2022-08-27T04:13:09.991Z,8.63
2022-08-27T04:15:40.499Z,7.88
2022-08-27T04:18:09.750Z,8.90
2022-08-27T04:20:37.410Z,7.90
2022-08-27T04:23:05.176Z,7.90
2022-08-27T04:25:32.750Z,7.50
2022-08-27T04:28:00.290Z,7.80
2022-08-27T04:30:27.817Z,7.15
2022-08-27T04:32:55.331Z,7.90
2022-08-27T04:35:24.157Z,9.30
2022-08-27T04:37:51.849Z,7.63
2022-08-27T04:40:19.476Z,7.25
2022-08-27T04:42:47.003Z,8.77
2022-08-27T04:45:14.464Z,7.65
2022-08-27T04:47:41.971Z,8.00
2022-08-27T04:50:09.732Z,7.53
2022-08-27T04:52:40.908Z,9.15
2022-08-27T04:55:09.211Z,7.82
2022-08-27T04:57:38.024Z,6.95
2022-08-27T05:00:07.055Z,7.35
2022-08-27T05:02:34.597Z,6.60
2022-08-27T05:05:02.195Z,6.82
2022-08-27T05:07:29.769Z,7.75
2022-08-27T05:09:58.760Z,6.90
2022-08-27T05:12:26.355Z,6.90
2022-08-27T05:14:55.336Z,7.18
2022-08-27T05:17:22.967Z,6.80
2022-08-27T05:19:50.514Z,6.68
2022-08-27T05:22:18.023Z,8.18
2022-08-27T05:24:49.955Z,6.90
2022-08-27T05:27:19.499Z,7.10
2022-08-27T05:29:47.025Z,8.63
2022-08-27T05:32:14.586Z,7.85
2022-08-27T05:34:42.083Z,6.80
2022-08-27T05:37:09.611Z,6.50
2022-08-27T05:39:37.098Z,7.78
2022-08-27T05:42:04.836Z,7.32
2022-08-27T05:44:42.009Z,8.23
2022-08-27T05:47:10.094Z,7.35
2022-08-27T05:49:37.701Z,7.05
2022-08-27T05:52:08.782Z,7.70
2022-08-27T05:54:36.339Z,7.07
2022-08-27T05:57:03.862Z,7.97
2022-08-27T05:59:48.688Z,8.27
2022-08-27T06:02:18.929Z,7.15
2022-08-27T06:04:46.884Z,7.13
2022-08-27T06:07:15.081Z,7.80
2022-08-27T06:09:42.934Z,7.43
2022-08-27T06:12:10.619Z,7.20
2022-08-27T06:14:38.633Z,10.75
2022-08-27T06:17:06.520Z,9.43
2022-08-27T06:19:36.567Z,8.23
2022-08-27T06:22:10.586Z,7.60
2022-08-27T06:24:39.250Z,7.07
2022-08-27T06:27:06.932Z,7.90
2022-08-27T06:29:35.067Z,9.50
2022-08-27T06:32:02.715Z,8.77
2022-08-27T06:34:30.227Z,8.98
2022-08-27T06:36:59.537Z,10.68
2022-08-27T06:39:27.073Z,9.77
2022-08-27T06:41:55.168Z,8.77
2022-08-27T06:44:24.326Z,11.10
2022-08-27T06:46:52.551Z,11.30
2022-08-27T06:49:20.071Z,10.40
2022-08-27T06:51:48.457Z,10.82
2022-08-27T06:54:18.395Z,11.45
2022-08-27T06:56:45.912Z,10.45
2022-08-27T06:59:15.533Z,14.02
2022-08-27T07:01:44.157Z,13.63
2022-08-27T07:04:12.875Z,11.40
2022-08-27T07:06:41.104Z,13.43
2022-08-27T07:09:09.488Z,12.32
2022-08-27T07:11:38.969Z,12.60
2022-08-27T07:14:07.414Z,11.85
2022-08-27T07:16:35.854Z,14.55
2022-08-27T07:19:05.166Z,20.83
2022-08-27T07:21:32.946Z,15.27
2022-08-27T07:24:04.717Z,16.75
2022-08-27T07:26:34.677Z,16.40
2022-08-27T07:29:03.857Z,15.93
2022-08-27T07:31:32.337Z,17.70
2022-08-27T07:33:59.783Z,17.50
2022-08-27T07:36:27.241Z,21.23
2022-08-27T07:39:00.872Z,19.42
2022-08-27T07:41:31.302Z,20.77
2022-08-27T07:44:17.061Z,18.08
2022-08-27T07:46:48.792Z,18.48
2022-08-27T07:49:17.266Z,16.83
2022-08-27T07:51:45.032Z,18.15
2022-08-27T07:54:12.588Z,17.73
2022-08-27T07:56:40.113Z,18.88
2022-08-27T07:59:08.167Z,18.70
2022-08-27T08:01:35.732Z,15.20
2022-08-27T08:04:05.094Z,20.85
2022-08-27T08:06:32.556Z,20.30
2022-08-27T08:09:01.643Z,17.92
2022-08-27T08:11:29.832Z,17.83
2022-08-27T08:13:57.335Z,17.65
2022-08-27T08:16:29.581Z,17.67
2022-08-27T08:19:00.155Z,19.27
2022-08-27T08:21:29.116Z,15.13
2022-08-27T08:23:56.666Z,16.63
2022-08-27T08:26:24.172Z,17.02
2022-08-27T08:28:51.681Z,15.15
2022-08-27T08:31:19.272Z,19.05
2022-08-27T08:33:48.060Z,16.77
2022-08-27T08:36:16.446Z,17.38
2022-08-27T08:38:46.016Z,18.50
2022-08-27T08:41:26.867Z,15.20
2022-08-27T08:43:54.889Z,17.02
2022-08-27T08:46:26.571Z,15.25
2022-08-27T08:48:55.977Z,20.77
2022-08-27T08:51:26.262Z,18.98
2022-08-27T08:53:57.240Z,22.20
2022-08-27T08:56:28.590Z,18.02
2022-08-27T08:58:58.404Z,14.52
2022-08-27T09:01:27.418Z,14.05
2022-08-27T09:03:57.223Z,13.40
2022-08-27T09:06:31.063Z,13.65
2022-08-27T09:09:01.599Z,11.20
2022-08-27T09:11:35.050Z,9.75
2022-08-27T09:14:03.754Z,11.05
2022-08-27T09:16:32.413Z,10.20
2022-08-27T09:19:02.934Z,12.85
2022-08-27T09:21:37.388Z,16.95
2022-08-27T09:24:08.948Z,10.02
2022-08-27T09:26:38.607Z,10.23
2022-08-27T09:29:20.832Z,9.25
2022-08-27T09:31:50.688Z,10.00
2022-08-27T09:34:18.195Z,11.25
2022-08-27T09:36:54.721Z,11.55
2022-08-27T09:39:29.202Z,14.15
2022-08-27T09:41:56.689Z,14.85
2022-08-27T09:44:24.328Z,14.50
2022-08-27T09:46:52.701Z,12.23
2022-08-27T09:49:20.530Z,15.10
2022-08-27T09:51:48.662Z,12.05
2022-08-27T09:54:41.928Z,12.13
2022-08-27T09:57:10.867Z,13.00
2022-08-27T09:59:40.444Z,10.70
2022-08-27T10:02:15.159Z,16.23
2022-08-27T10:04:50.285Z,13.43
2022-08-27T10:07:26.382Z,15.45
2022-08-27T10:09:57.937Z,12.77
2022-08-27T10:12:28.370Z,13.20
2022-08-27T10:14:59.530Z,10.60
2022-08-27T10:17:31.551Z,10.75
2022-08-27T10:20:01.846Z,11.95
2022-08-27T10:22:37.090Z,12.90
2022-08-27T10:25:10.964Z,10.18
2022-08-27T10:27:44.870Z,9.88
2022-08-27T10:30:14.820Z,8.60
2022-08-27T10:32:52.904Z,7.68
2022-08-27T10:35:25.199Z,9.45
2022-08-27T10:37:59.378Z,8.70
2022-08-27T10:40:30.150Z,7.07
2022-08-27T10:43:04.330Z,6.13
2022-08-27T10:45:41.784Z,5.30
2022-08-27T10:48:13.887Z,4.00
2022-08-27T10:50:46.299Z,4.68
2022-08-27T10:53:19.318Z,4.22
2022-08-27T10:55:52.296Z,3.42
2022-08-27T10:58:26.576Z,2.97
2022-08-27T11:00:59.310Z,2.33
2022-08-27T11:03:32.101Z,1.90
2022-08-27T11:06:02.970Z,2.55
2022-08-27T11:08:35.579Z,2.55
2022-08-27T11:11:35.011Z,2.47
2022-08-27T11:14:01.231Z,2.75
2022-08-27T11:16:33.914Z,3.10
2022-08-27T11:19:03.710Z,2.25
2022-08-27T11:21:35.461Z,3.25
2022-08-27T11:24:07.084Z,2.45
2022-08-27T11:26:37.430Z,2.80
2022-08-27T11:29:09.878Z,3.15
2022-08-27T11:31:43.678Z,3.35
2022-08-27T11:34:14.264Z,2.92
2022-08-27T11:36:54.209Z,3.63
2022-08-27T11:39:28.992Z,3.50
2022-08-27T11:42:03.033Z,4.03
2022-08-27T11:44:30.703Z,3.35
2022-08-27T11:47:08.185Z,2.80
2022-08-27T11:49:38.232Z,2.92
2022-08-27T11:52:07.286Z,1.95
2022-08-27T11:54:45.374Z,2.45
2022-08-27T11:57:18.278Z,2.95
2022-08-27T11:59:45.952Z,2.95
2022-08-27T12:02:19.590Z,3.08
2022-08-27T12:04:48.877Z,2.13
2022-08-27T12:07:29.726Z,3.03
2022-08-27T12:10:16.819Z,2.65
2022-08-27T12:12:52.391Z,3.47
2022-08-27T12:15:23.976Z,1.90
2022-08-27T12:18:05.079Z,1.67
2022-08-27T12:20:40.865Z,1.90
2022-08-27T12:23:33.754Z,2.22
2022-08-27T12:26:02.422Z,2.25
2022-08-27T12:28:31.401Z,1.80
2022-08-27T12:30:59.242Z,1.73
2022-08-27T12:33:30.845Z,2.45
2022-08-27T12:36:01.553Z,2.75
2022-08-27T12:38:43.759Z,1.85
2022-08-27T12:41:25.237Z,2.45
2022-08-27T12:44:02.849Z,2.15
2022-08-27T12:46:31.061Z,1.80
2022-08-27T12:49:01.313Z,1.88
2022-08-27T12:51:47.308Z,2.33
2022-08-27T12:54:29.931Z,1.63
2022-08-27T12:57:02.785Z,2.63
2022-08-27T12:59:47.486Z,2.80
2022-08-27T13:02:24.337Z,1.48
2022-08-27T13:04:52.123Z,1.73
2022-08-27T13:07:26.917Z,2.35
2022-08-27T13:10:09.269Z,1.50
2022-08-27T13:12:36.948Z,2.03
2022-08-27T13:15:08.515Z,1.67
2022-08-27T13:17:37.980Z,1.60
2022-08-27T13:20:05.868Z,1.35
2022-08-27T13:22:39.568Z,2.10
2022-08-27T13:25:08.099Z,1.75
2022-08-27T13:27:37.182Z,3.05
2022-08-27T13:30:07.325Z,2.45
2022-08-27T13:32:37.671Z,1.73
2022-08-27T13:35:06.552Z,1.50
2022-08-27T13:37:36.091Z,1.40
2022-08-27T13:40:04.022Z,1.58
2022-08-27T13:42:31.992Z,1.70
2022-08-27T13:45:02.421Z,2.30
2022-08-27T13:47:30.865Z,2.58
2022-08-27T13:50:04.667Z,2.60
2022-08-27T13:52:33.554Z,2.22
2022-08-27T13:55:05.763Z,3.15
2022-08-27T13:57:41.097Z,1.90
2022-08-27T14:00:09.769Z,1.42
2022-08-27T14:02:37.561Z,1.40
2022-08-27T14:05:09.657Z,2.10
2022-08-27T14:07:38.163Z,3.80
2022-08-27T14:10:07.437Z,4.18
2022-08-27T14:12:36.989Z,1.98
2022-08-27T14:15:14.126Z,1.50
2022-08-27T14:17:42.215Z,1.98
2022-08-27T14:20:11.569Z,1.70
2022-08-27T14:22:39.363Z,2.20
2022-08-27T14:25:07.355Z,2.10
2022-08-27T14:27:36.083Z,2.50
2022-08-27T14:30:04.156Z,1.50
2022-08-27T14:32:33.345Z,2.75
2022-08-27T14:35:00.897Z,2.30
2022-08-27T14:37:29.880Z,2.25
2022-08-27T14:39:57.707Z,2.83
2022-08-27T14:42:25.423Z,3.65
2022-08-27T14:44:56.437Z,2.85
2022-08-27T14:47:26.415Z,2.72
2022-08-27T14:49:54.789Z,3.45
2022-08-27T14:52:22.408Z,4.43
2022-08-27T14:54:51.363Z,4.22
2022-08-27T14:57:19.450Z,4.07
2022-08-27T14:59:46.971Z,3.83
2022-08-27T15:02:14.980Z,3.22
2022-08-27T15:04:46.470Z,3.53
2022-08-27T15:07:15.676Z,4.30
2022-08-27T15:09:44.515Z,3.50
2022-08-27T15:12:25.936Z,4.63
2022-08-27T15:14:54.487Z,2.60
2022-08-27T15:17:34.643Z,4.63
2022-08-27T15:20:03.046Z,2.35
2022-08-27T15:22:33.859Z,2.05
2022-08-27T15:25:02.036Z,3.13
2022-08-27T15:27:38.582Z,1.85
2022-08-27T15:30:07.385Z,2.42
2022-08-27T15:32:35.582Z,3.00
2022-08-27T15:35:07.855Z,2.25
2022-08-27T15:37:35.899Z,2.40
2022-08-27T15:40:03.871Z,2.80
2022-08-27T15:42:32.760Z,1.48
2022-08-27T15:45:00.475Z,1.85
2022-08-27T15:47:28.037Z,1.55
2022-08-27T15:49:55.574Z,1.58
2022-08-27T15:52:23.369Z,1.92
2022-08-27T15:54:51.475Z,2.95
2022-08-27T15:57:19.661Z,1.75
2022-08-27T15:59:48.718Z,2.35
2022-08-27T16:02:17.401Z,5.68
2022-08-27T16:04:45.122Z,4.93
2022-08-27T16:07:21.004Z,8.52
2022-08-27T16:09:49.038Z,8.60
2022-08-27T16:12:27.016Z,7.78
2022-08-27T16:14:56.656Z,4.75
2022-08-27T16:17:24.557Z,3.78
2022-08-27T16:19:52.118Z,2.33
2022-08-27T16:22:19.934Z,2.22
2022-08-27T16:24:47.460Z,4.63
2022-08-27T16:27:14.922Z,6.10
2022-08-27T16:29:42.465Z,4.72
2022-08-27T16:32:15.007Z,7.25
2022-08-27T16:34:42.736Z,6.00
2022-08-27T16:37:10.427Z,4.47
2022-08-27T16:39:40.667Z,5.00
2022-08-27T16:42:10.029Z,4.93
2022-08-27T16:44:38.359Z,8.07
2022-08-27T16:47:06.153Z,4.25
2022-08-27T16:49:52.325Z,3.63
2022-08-27T16:52:20.818Z,4.20
2022-08-27T16:54:49.003Z,3.17
2022-08-27T16:57:16.687Z,3.75
2022-08-27T16:59:44.217Z,3.45
2022-08-27T17:02:15.205Z,3.50
2022-08-27T17:04:49.264Z,4.88
2022-08-27T17:07:26.195Z,10.18
2022-08-27T17:09:53.781Z,4.93
2022-08-27T17:12:25.195Z,4.53
2022-08-27T17:14:52.764Z,4.10
2022-08-27T17:17:20.477Z,3.92
2022-08-27T17:19:49.377Z,3.97
2022-08-27T17:22:16.893Z,4.07
2022-08-27T17:24:44.414Z,2.88
2022-08-27T17:27:11.935Z,3.15
2022-08-27T17:29:39.507Z,3.17
2022-08-27T17:32:08.841Z,4.07
2022-08-27T17:34:36.955Z,4.10
2022-08-27T17:37:06.027Z,3.55
2022-08-27T17:39:33.623Z,4.63
2022-08-27T17:42:01.235Z,4.28
2022-08-27T17:44:31.680Z,4.70
2022-08-27T17:47:00.235Z,5.03
2022-08-27T17:49:28.080Z,5.35
2022-08-27T17:51:57.356Z,5.53
2022-08-27T17:54:33.795Z,4.88
2022-08-27T17:57:02.112Z,5.38
2022-08-27T17:59:29.947Z,5.13
2022-08-27T18:01:57.733Z,5.38
2022-08-27T18:04:25.475Z,5.38
2022-08-27T18:06:53.039Z,5.57
2022-08-27T18:09:20.570Z,5.22
2022-08-27T18:11:49.514Z,5.78
2022-08-27T18:14:18.585Z,5.72
2022-08-27T18:16:46.462Z,6.28
2022-08-27T18:19:14.183Z,6.13
2022-08-27T18:21:46.392Z,6.05
2022-08-27T18:24:14.669Z,6.43
2022-08-27T18:26:42.249Z,6.03
2022-08-27T18:29:11.849Z,6.50
2022-08-27T18:31:39.461Z,8.88
2022-08-27T18:34:07.359Z,6.75
2022-08-27T18:36:34.934Z,7.88
2022-08-27T18:39:02.497Z,7.55
2022-08-27T18:41:31.430Z,8.07
2022-08-27T18:43:59.069Z,8.20
2022-08-27T18:46:28.090Z,8.23
2022-08-27T18:48:55.718Z,8.73
2022-08-27T18:51:23.342Z,8.73
2022-08-27T18:53:50.826Z,8.95
2022-08-27T18:56:20.144Z,10.35
2022-08-27T18:58:48.120Z,10.13
2022-08-27T19:01:17.673Z,9.35
2022-08-27T19:03:48.162Z,10.57
2022-08-27T19:06:17.894Z,9.80
2022-08-27T19:08:46.303Z,9.88
2022-08-27T19:11:14.187Z,11.13
2022-08-27T19:13:42.053Z,10.18
2022-08-27T19:16:13.703Z,10.98
2022-08-27T19:18:41.897Z,11.05
2022-08-27T19:21:11.082Z,10.43
2022-08-27T19:23:39.075Z,11.75
2022-08-27T19:26:07.216Z,10.63
2022-08-27T19:28:38.424Z,11.07
2022-08-27T19:31:07.116Z,11.32
2022-08-27T19:33:34.936Z,12.35
2022-08-27T19:36:02.682Z,10.93
2022-08-27T19:38:32.699Z,11.30
2022-08-27T19:41:00.423Z,11.98
2022-08-27T19:43:28.230Z,11.90
2022-08-27T19:45:56.842Z,12.00
2022-08-27T19:48:24.531Z,14.07
2022-08-27T19:50:52.224Z,11.77
2022-08-27T19:53:19.829Z,12.13
2022-08-27T19:55:48.827Z,12.85
2022-08-27T19:58:17.527Z,11.85
2022-08-27T20:00:45.727Z,10.35
2022-08-27T20:03:13.532Z,12.32
2022-08-27T20:05:41.143Z,11.65
2022-08-27T20:08:08.827Z,11.98
2022-08-27T20:10:37.031Z,11.60
2022-08-27T20:13:06.375Z,11.52
2022-08-27T20:15:34.397Z,12.25
2022-08-27T20:18:02.049Z,30.52
2022-08-27T20:20:29.990Z,12.93
2022-08-27T20:22:59.173Z,11.45
2022-08-27T20:25:27.085Z,12.02
2022-08-27T20:27:54.685Z,12.77
2022-08-27T20:30:24.702Z,12.07
2022-08-27T20:32:52.276Z,12.43
2022-08-27T20:35:20.329Z,13.00
2022-08-27T20:37:47.856Z,12.60
2022-08-27T20:40:17.958Z,12.38
2022-08-27T20:42:45.593Z,12.00
2022-08-27T20:45:13.465Z,12.00
2022-08-27T20:47:43.499Z,12.40
2022-08-27T20:50:11.844Z,13.45
2022-08-27T20:52:39.788Z,15.27
2022-08-27T20:55:08.075Z,14.25
2022-08-27T20:57:35.607Z,16.52
2022-08-27T21:00:20.613Z,13.20
2022-08-27T21:02:49.476Z,13.40
2022-08-27T21:05:17.767Z,12.93
2022-08-27T21:07:48.421Z,14.20
2022-08-27T21:10:16.418Z,14.13
2022-08-27T21:12:44.267Z,13.35
2022-08-27T21:15:12.325Z,13.45
2022-08-27T21:17:40.086Z,13.75
2022-08-27T21:20:10.888Z,14.07
2022-08-27T21:22:38.819Z,13.10
2022-08-27T21:25:07.071Z,14.15
2022-08-27T21:27:34.780Z,13.30
2022-08-27T21:30:02.430Z,14.13
2022-08-27T21:32:30.056Z,14.95
2022-08-27T21:34:57.514Z,14.00
2022-08-27T21:37:26.503Z,15.23
2022-08-27T21:39:54.086Z,15.80
2022-08-27T21:42:21.630Z,14.57
2022-08-27T21:44:49.425Z,14.75
2022-08-27T21:47:17.053Z,14.57
2022-08-27T21:49:44.687Z,15.38
2022-08-27T21:52:12.349Z,14.45
2022-08-27T21:54:42.208Z,15.25
2022-08-27T21:57:10.146Z,15.70
2022-08-27T21:59:43.428Z,15.25
2022-08-27T22:02:35.774Z,13.88
2022-08-27T22:04:58.645Z,13.85
2022-08-27T22:07:28.047Z,14.68
2022-08-27T22:09:56.972Z,13.90
2022-08-27T22:12:25.412Z,14.43
2022-08-27T22:14:53.054Z,14.80
2022-08-27T22:17:20.655Z,13.40
2022-08-27T22:19:48.197Z,15.13
2022-08-27T22:22:15.734Z,14.75
2022-08-27T22:24:43.291Z,15.20
2022-08-27T22:27:12.259Z,15.05
2022-08-27T22:29:39.835Z,14.77
2022-08-27T22:32:08.043Z,16.58
2022-08-27T22:34:36.332Z,15.50
2022-08-27T22:37:03.975Z,17.23
2022-08-27T22:39:31.880Z,16.98
2022-08-27T22:42:00.327Z,16.35
2022-08-27T22:44:29.538Z,15.43
2022-08-27T22:46:57.332Z,16.85
2022-08-27T22:49:25.128Z,16.83
2022-08-27T22:51:52.791Z,16.83
2022-08-27T22:54:20.414Z,16.08
2022-08-27T22:56:48.064Z,17.50
2022-08-27T22:59:15.623Z,17.63
2022-08-27T23:01:44.583Z,17.75
2022-08-27T23:04:12.292Z,16.55
2022-08-27T23:06:40.316Z,15.02
2022-08-27T23:09:07.906Z,17.40
2022-08-27T23:11:36.404Z,17.33
2022-08-27T23:14:03.994Z,16.40
2022-08-27T23:16:32.379Z,16.70
2022-08-27T23:19:01.309Z,18.38
2022-08-27T23:21:29.106Z,19.17
2022-08-27T23:23:56.651Z,18.25
2022-08-27T23:26:41.657Z,16.70
2022-08-27T23:29:11.328Z,17.00
2022-08-27T23:31:38.983Z,17.02
2022-08-27T23:34:07.979Z,17.23
2022-08-27T23:36:35.802Z,17.27
2022-08-27T23:39:03.354Z,17.75
2022-08-27T23:41:30.843Z,16.25
2022-08-27T23:43:58.403Z,16.08
2022-08-27T23:46:26.052Z,14.95
2022-08-27T23:48:53.635Z,17.60
2022-08-27T23:51:22.553Z,15.73
2022-08-27T23:53:50.134Z,16.15
2022-08-27T23:56:17.970Z,17.05
2022-08-27T23:58:45.542Z,15.55
